Latest Coastal Weather Observations for Minlaton Airport

IDS60701

Issued at 5:01 pm CST Saturday 29 April 2017 (issued every 10 minutes, with the page automatically refreshed every 10 minutes)

About coastal observations | Map of coastal stations | Coastal observations for SA | Marine services | Other Formats
Station Details ID: 022031 Name: MINLATON AERO Lat: -34.75 Lon: 137.53 Height: 32.0 m
Data from the previous 72 hours. | See also: Recent months at Minlaton Airport
Date/Time
CST
Temp
°C
Wind Pressure Rain since
9am
mm
Weather Cloud Vis
km
Sea
Height
m
Swell
Dir  Spd
kts
Gust
kts
hPa Trend Height
m
Period
s
Dir
29/05:00pm 16.9 W 7 8 1024.5 - 0.2 - - - - - - -
29/04:30pm 17.3 W 8 10 1024.4 - 0.2 - - - - - - -
29/04:00pm 17.5 W 8 10 1024.5 - 0.2 - - - - - - -
29/03:30pm 17.9 WNW 9 12 1024.5 - 0.2 - - - - - - -
29/03:00pm 17.8 WNW 9 11 1024.7 - 0.2 - - - - - - -
29/02:30pm 18.0 NW 10 12 1024.7 - 0.2 - - - - - - -
29/02:00pm 18.2 WNW 10 12 1024.7 - 0.2 - - - - - - -
29/01:30pm 18.4 WNW 10 13 1025.0 - 0.2 - - - - - - -
29/01:00pm 19.0 WNW 10 14 1025.2 - 0.2 - - - - - - -
29/12:30pm 20.0 WNW 7 10 1025.6 - 0.2 - - - - - - -
29/12:00pm 18.8 WNW 7 10 1026.2 - 0.0 - - - - - - -
29/11:30am 18.4 WNW 6 10 1026.6 - 0.0 - - - - - - -
29/11:00am 18.1 WNW 4 6 1026.9 - 0.0 - - - - - - -
29/10:30am 17.7 ESE 3 5 1026.9 - 0.0 - - - - - - -
29/10:00am 17.1 N 6 8 1027.0 - 0.0 - - - - - - -
29/09:30am 16.2 N 6 8 1027.1 - 0.0 - - - - - - -
29/09:00am 15.4 N 7 8 1027.0 - 0.0 - - - - - - -
29/08:30am 14.8 N 7 8 1026.8 - 0.0 - - - - - - -
29/08:00am 14.2 NE 5 7 1026.6 - 0.0 - - - - - - -
29/07:30am 13.5 NNE 6 7 1026.4 - 0.0 - - - - - - -
29/07:00am 13.2 NNE 5 6 1026.2 - 0.0 - - - - - - -
29/06:30am 13.2 N 5 6 1025.9 - 0.0 - - - - - - -
29/06:00am 13.2 N 5 6 1025.8 - 0.0 - - - - - - -
29/05:30am 13.3 N 5 7 1025.7 - 0.0 - - - - - - -
29/05:00am 13.4 NE 4 5 1025.5 - 0.0 - - - - - - -
29/04:30am 13.4 NNE 5 7 1025.4 - 0.0 - - - - - - -
29/04:00am 13.2 NNE 5 6 1025.3 - 0.0 - - - - - - -
29/03:30am 13.3 ENE 4 5 1025.5 - 0.0 - - - - - - -
29/03:00am 13.3 N 4 6 1025.7 - 0.0 - - - - - - -
29/02:30am 12.8 NNW 6 7 1026.0 - 0.0 - - - - - - -
29/02:00am 13.2 ESE 2 3 1025.9 - 0.0 - - - - - - -
29/01:30am 13.2 SE 4 4 1025.9 - 0.0 - - - - - - -
29/01:00am 13.7 SW 5 7 1026.2 - 0.0 - - - - - - -
29/12:30am 13.7 CALM 0 3 1026.2 - 0.0 - - - - - - -
29/12:00am 13.9 CALM 0 0 1026.5 - 0.0 - - - - - - -
 
Date/Time
CST
Temp
°C
Wind Pressure Rain since
9am
mm
Weather Cloud Vis
km
Sea
Height
m
Swell
Dir  Spd
kts
Gust
kts
hPa Trend Height
m
Period
s
Dir
28/11:30pm 14.0 CALM 0 0 1026.7 - 0.0 - - - - - - -
28/11:00pm 14.0 CALM 0 0 1026.9 - 0.0 - - - - - - -
28/10:30pm 14.0 SE 2 4 1027.1 - 0.0 - - - - - - -
28/10:00pm 14.0 SE 4 4 1027.2 - 0.0 - - - - - - -
28/09:30pm 14.2 S 5 6 1027.3 - 0.0 - - - - - - -
28/09:00pm 14.1 S 5 6 1027.3 - 0.0 - - - - - - -
28/08:30pm 14.2 S 3 4 1027.1 - 0.0 - - - - - - -
28/08:00pm 14.3 S 3 4 1027.1 - 0.0 - - - - - - -
28/07:30pm 14.4 SSE 4 5 1027.0 - 0.0 - - - - - - -
28/07:00pm 14.6 SSE 7 8 1027.0 - 0.0 - - - - - - -
28/06:30pm 15.2 SSW 8 10 1026.9 - 0.0 - - - - - - -
28/06:00pm 15.8 SSW 7 10 1026.8 - 0.0 - - - - - - -
28/05:30pm 16.2 WSW 10 12 1026.6 - 0.0 - - - - - - -
28/05:00pm 16.3 W 10 13 1026.6 - 0.0 - - - - - - -
28/04:30pm 16.5 W 12 14 1026.6 - 0.0 - - - - - - -
28/04:00pm 16.9 W 11 14 1026.7 - 0.0 - - - - - - -
28/03:30pm 16.3 WSW 9 11 1026.8 - 0.0 - - - - - - -
28/03:00pm 16.4 WSW 10 19 1026.8 - 0.0 - - - - - - -
28/02:30pm 17.7 S 11 14 1026.9 - 0.0 - - - - - - -
28/02:20pm 15.9 SSW 13 16 1027.0 - 0.0 - - - - - - -
28/02:00pm 17.0 WSW 19 24 1027.0 - 0.0 - - - - - - -
28/01:57pm 17.6 WSW 16 22 1027.0 - 0.0 - - - - - - -
28/01:30pm 19.4 W 11 15 1027.2 - 0.0 - - - - - - -
28/01:00pm 18.6 WSW 11 16 1027.6 - 0.0 - - - - - - -
28/12:30pm 18.7 WNW 8 10 1027.8 - 0.0 - - - - - - -
28/12:00pm 18.5 WSW 9 12 1028.3 - 0.0 - - - - - - -
28/11:30am 17.7 SSW 7 9 1028.7 - 0.0 - - - - - - -
28/11:00am 17.3 WSW 12 16 1029.0 - 0.0 - - - - - - -
28/10:30am 16.5 WSW 16 20 1028.9 - 0.0 - - - - - - -
28/10:00am 17.5 WSW 11 14 1028.7 - 0.0 - - - - - - -
28/09:30am 16.2 WSW 10 13 1028.7 - 0.0 - - - - - - -
28/09:00am 14.7 S 3 6 1028.7 - 0.0 - - - - - - -
28/08:30am 14.3 NNE 4 5 1028.4 - 0.0 - - - - - - -
28/08:00am 13.1 NNE 4 5 1028.3 - 0.0 - - - - - - -
28/07:30am 11.7 NNE 5 6 1028.0 - 0.0 - - - - - - -
28/07:00am 9.9 CALM 0 3 1027.8 - 0.0 - - - - - - -
28/06:30am 9.5 ENE 3 5 1027.6 - 0.0 - - - - - - -
28/06:00am 10.0 NE 5 6 1027.7 - 0.0 - - - - - - -
28/05:30am 9.7 NE 6 7 1027.5 - 0.0 - - - - - - -
28/05:00am 9.8 NNE 7 7 1027.3 - 0.0 - - - - - - -
28/04:30am 9.8 NNE 6 7 1027.1 - 0.0 - - - - - - -
28/04:00am 10.4 NE 5 5 1027.0 - 0.0 - - - - - - -
28/03:30am 10.9 NE 6 7 1027.1 - 0.0 - - - - - - -
28/03:00am 11.4 CALM 0 0 1027.3 - 0.0 - - - - - - -
28/02:30am 11.4 CALM 0 0 1027.6 - 0.0 - - - - - - -
28/02:00am 10.7 CALM 0 0 1027.6 - 0.0 - - - - - - -
28/01:30am 11.1 CALM 0 2 1027.5 - 0.0 - - - - - - -
28/01:00am 10.4 CALM 0 5 1027.6 - 0.0 - - - - - - -
28/12:30am 10.9 E 6 7 1027.7 - 0.0 - - - - - - -
28/12:00am 10.7 ESE 5 7 1027.8 - 0.0 - - - - - - -
 
Date/Time
CST
Temp
°C
Wind Pressure Rain since
9am
mm
Weather Cloud Vis
km
Sea
Height
m
Swell
Dir  Spd
kts
Gust
kts
hPa Trend Height
m
Period
s
Dir
27/11:30pm 10.5 E 4 5 1028.0 - 0.0 - - - - - - -
27/11:00pm 9.9 CALM 0 3 1028.2 - 0.0 - - - - - - -
27/10:30pm 9.7 CALM 0 0 1028.2 - 0.0 - - - - - - -
27/10:00pm 11.5 CALM 0 2 1028.1 - 0.0 - - - - - - -
27/09:30pm 11.1 SSW 1 4 1028.0 - 0.0 - - - - - - -
27/09:00pm 10.6 SSE 1 3 1028.0 - 0.0 - - - - - - -
27/08:30pm 11.4 SSE 3 4 1028.0 - 0.0 - - - - - - -
27/08:00pm 11.7 S 4 4 1028.0 - 0.0 - - - - - - -
27/07:30pm 11.7 SSE 3 4 1027.8 - 0.0 - - - - - - -
27/07:00pm 12.7 S 4 5 1027.8 - 0.0 - - - - - - -
27/06:30pm 13.3 S 5 7 1027.6 - 0.0 - - - - - - -
27/06:00pm 13.3 SSW 9 11 1027.3 - 0.0 - - - - - - -
27/05:30pm 14.0 SW 9 12 1027.4 - 0.0 - - - - - - -
27/05:00pm 15.5 S 5 7 1027.2 - 0.0 - - - - - - -
27/04:30pm 16.5 SW 9 12 1027.1 - 0.0 - - - - - - -
27/04:00pm 16.7 SW 8 11 1027.1 - 0.0 - - - - - - -
27/03:30pm 15.8 WSW 13 17 1027.1 - 0.0 - - - - - - -
27/03:00pm 17.0 WSW 12 16 1027.0 - 0.0 - - - - - - -
27/02:30pm 16.3 W 11 14 1027.0 - 0.0 - - - - - - -
27/02:00pm 16.6 W 9 13 1026.9 - 0.0 - - - - - - -
27/01:30pm 18.0 WNW 10 14 1027.0 - 0.0 - - - - - - -
27/01:00pm 16.5 W 11 14 1027.2 - 0.0 - - - - - - -
27/12:30pm 18.5 SW 10 14 1027.8 - 0.0 - - - - - - -
27/12:00pm 17.5 SSE 9 14 1028.2 - 0.0 - - - - - - -
27/11:30am 15.4 S 10 14 1028.6 - 0.0 - - - - - - -
27/11:00am 16.4 SW 11 15 1028.8 - 0.0 - - - - - - -
27/10:30am 17.0 SW 10 13 1029.1 - 0.0 - - - - - - -
27/10:00am 15.7 SW 12 15 1029.3 - 0.0 - - - - - - -
27/09:30am 15.6 SW 8 11 1029.3 - 0.0 - - - - - - -
27/09:00am 14.5 SW 5 7 1029.1 - 0.0 - - - - - - -
27/08:30am 13.3 SSW 2 4 1028.9 - 0.0 - - - - - - -
27/08:00am 11.4 SE 4 5 1028.4 - 0.0 - - - - - - -
27/07:30am 10.0 SSE 4 5 1028.1 - 0.0 - - - - - - -
27/07:00am 8.7 SE 3 4 1027.9 - 0.0 - - - - - - -
27/06:30am 9.4 SE 5 6 1027.7 - 0.0 - - - - - - -
27/06:00am 10.5 SE 9 10 1027.5 - 0.0 - - - - - - -
27/05:30am 10.3 SSE 7 9 1027.2 - 0.0 - - - - - - -
27/05:00am 9.7 SSE 6 7 1026.8 - 0.0 - - - - - - -
27/04:30am 8.0 SSE 6 7 1026.7 - 0.0 - - - - - - -
27/04:00am 7.4 SSE 7 7 1026.5 - 0.0 - - - - - - -
27/03:30am 6.9 SSE 6 7 1026.4 - 0.0 - - - - - - -
27/03:00am 6.8 S 6 7 1026.6 - 0.0 - - - - - - -
27/02:30am 6.4 SSE 7 8 1026.7 - 0.0 - - - - - - -
27/02:00am 7.9 S 7 7 1026.9 - 0.0 - - - - - - -
27/01:30am 7.6 SSE 7 8 1026.8 - 0.0 - - - - - - -
27/01:00am 7.9 SSE 7 8 1026.8 - 0.0 - - - - - - -
27/12:30am 7.1 SSE 7 8 1026.7 - 0.0 - - - - - - -
27/12:00am 7.6 SSE 8 9 1026.6 - 0.0 - - - - - - -
 
Date/Time
CST
Temp
°C
Wind Pressure Rain since
9am
mm
Weather Cloud Vis
km
Sea
Height
m
Swell
Dir  Spd
kts
Gust
kts
hPa Trend Height
m
Period
s
Dir
26/11:30pm 8.0 S 7 8 1026.5 - 0.0 - - - - - - -
26/11:00pm 7.7 S 4 5 1026.5 - 0.0 - - - - - - -
26/10:30pm 8.5 SSW 4 5 1026.5 - 0.0 - - - - - - -
26/10:00pm 9.2 S 5 6 1026.5 - 0.0 - - - - - - -
26/09:30pm 9.6 SSE 6 7 1026.3 - 0.0 - - - - - - -
26/09:00pm 9.9 SSE 6 7 1026.2 - 0.0 - - - - - - -
26/08:30pm 11.1 S 10 15 1026.0 - 0.0 - - - - - - -
26/08:00pm 9.8 S 7 8 1025.7 - 0.0 - - - - - - -
26/07:30pm 9.7 S 7 8 1025.5 - 0.0 - - - - - - -
26/07:00pm 10.6 S 7 8 1025.1 - 0.0 - - - - - - -
26/06:30pm 11.7 SSW 8 10 1024.8 - 0.0 - - - - - - -
26/06:00pm 12.5 S 10 11 1024.5 - 0.0 - - - - - - -
26/05:30pm 13.5 S 13 15 1024.4 - 0.0 - - - - - - -

Other Formats:

Comma delimited format used in spreadsheet applications
http://www.bom.gov.au/fwo/IDS60701/IDS60701.95659.axf

JavaScript Object Notation format (JSON) in row-major order
http://www.bom.gov.au/fwo/IDS60701/IDS60701.95659.json